Latest Weather Observations for Thredbo Top Station

IDN60801

Issued at 11:03 pm EDT Sunday 1 March 2015 (issued every 30 minutes, with the page automatically refreshed every 10 minutes)

About weather observations | Map of weather stations | Latest weather observations for NSW | Other Formats
Station Details ID: 071032 Name: THREDBO AWS Lat: -36.49 Lon: 148.29 Height: 1957.0 m
Data from the previous 72 hours. | See also: Recent months at Thredbo Top Station
Date/Time
EDT
Temp
°C
App
Temp
°C
Dew
Point
Rel
Hum
%
Delta-T
°C
Wind Press
QNH
hPa
Press
MSL
hPa
Rain
since 9 am
mm
Dir
 
Spd
km/h
Gust
km/h
Spd
kts
Gust
kts
01/11:00pm 4.8 0.0 -10.9 31 5.2 SSE 9 26 5 14 1019.6 1017.3 1.8
01/10:30pm 4.0 0.5 -6.6 46 3.7 SE 4 11 2 6 1019.6 1017.3 1.8
01/10:00pm 2.5 -0.8 -1.1 77 1.4 SSW 6 11 3 6 1019.6 1017.3 1.8
01/09:30pm 2.3 -0.1 -0.4 82 1.1 SE 2 9 1 5 1019.2 1016.9 1.8
01/09:00pm 2.3 0.1 0.8 90 0.6 SW 2 9 1 5 1018.8 1016.4 1.8
01/08:30pm 2.9 -1.3 1.7 92 0.5 SSW 13 17 7 9 1018.2 1015.8 1.8
01/08:00pm 4.1 0.3 4.0 99 0.0 SSW 13 19 7 10 1017.9 1015.5 1.8
01/07:30pm 4.4 2.0 4.3 99 0.0 SSW 6 11 3 6 1017.4 1015.0 1.8
01/07:00pm 5.5 1.2 5.4 99 0.0 SSW 17 22 9 12 1017.0 1014.6 1.8
01/06:30pm 5.3 0.4 5.2 99 0.0 SW 20 28 11 15 1016.6 1014.2 1.8
01/06:00pm 6.3 1.2 6.2 99 0.0 SW 22 28 12 15 1016.3 1013.8 1.8
01/05:30pm 6.1 0.6 6.0 99 0.0 SW 24 30 13 16 1015.6 1013.1 1.8
01/05:00pm 6.8 1.9 6.7 99 0.0 SW 22 30 12 16 1015.2 1012.8 1.8
01/04:30pm 7.1 3.2 7.0 99 0.1 WSW 17 22 9 12 1014.9 1012.4 1.8
01/04:00pm 7.9 4.2 7.8 99 0.1 SW 17 24 9 13 1014.6 1012.1 1.8
01/03:30pm 10.2 7.4 9.9 98 0.2 WSW 15 24 8 13 1013.9 1011.4 1.8
01/03:00pm 9.8 6.9 9.5 98 0.2 WSW 15 26 8 14 1013.5 1011.0 1.8
01/02:30pm 10.8 7.1 8.0 83 1.5 NW 17 30 9 16 1012.8 1010.3 1.8
01/02:00pm 11.0 6.9 7.9 81 1.6 WNW 19 32 10 17 1012.5 1010.0 1.8
01/01:30pm 12.1 7.1 8.2 77 2.1 WNW 24 37 13 20 1012.7 1010.2 1.8
01/01:00pm 11.9 7.2 9.3 84 1.4 NW 24 39 13 21 1012.6 1010.1 1.8
01/12:30pm 10.1 5.5 8.0 87 1.1 WNW 22 39 12 21 1012.8 1010.3 1.8
01/12:00pm 9.8 3.7 9.7 99 0.1 WNW 32 46 17 25 1012.4 1009.8 1.8
01/11:58am 10.0 4.7 9.9 99 0.1 WNW 28 46 15 25 1012.3 1009.7 1.8
01/11:30am 9.6 3.8 9.5 99 0.1 WNW 30 46 16 25 1012.5 1010.0 1.8
01/11:00am 9.9 4.6 9.8 99 0.1 WNW 28 46 15 25 1012.4 1009.8 1.8
01/10:30am 10.0 4.3 9.9 99 0.1 WNW 30 52 16 28 1012.0 1007.9 1.8
01/10:02am 10.5 5.1 9.6 94 0.5 WNW 28 56 15 30 1011.8 1007.7 1.8
01/10:00am 9.9 5.0 9.8 99 0.1 WNW 26 46 14 25 1011.9 1007.8 1.8
01/09:34am 10.5 5.3 10.2 98 0.2 WNW 28 48 15 26 1011.5 1007.3 0.4
01/09:30am 10.7 5.5 10.4 98 0.2 NW 28 39 15 21 1011.2 1007.1 0.4
01/09:00am 9.7 4.1 8.9 95 0.4 WNW 28 46 15 25 1012.0 1007.9 6.2
01/08:59am 9.9 4.4 9.1 95 0.4 WNW 28 46 15 25 1012.4 1008.3 6.0
01/08:30am 11.1 4.9 9.4 89 0.9 WNW 32 48 17 26 1010.6 1006.4 2.2
01/08:00am 10.6 2.9 8.7 88 1.0 NW 39 50 21 27 1010.4 1006.3 2.2
01/07:38am 10.5 2.3 8.3 86 1.2 NW 41 59 22 32 1011.6 1007.4 2.0
01/07:30am 11.6 2.0 8.1 79 1.8 NW 48 63 26 34 1010.8 1006.6 1.2
01/07:00am 11.2 -0.3 7.1 76 2.1 NW 57 83 31 45 1009.9 1005.7 1.2
01/06:40am 10.9 -0.1 6.6 75 2.2 NW 54 78 29 42 1009.8 1005.6 1.2
01/06:30am 10.8 -0.1 7.1 78 1.9 NW 54 67 29 36 1010.0 1005.8 1.2
01/05:50am 9.9 3.1 7.5 85 1.2 NW 33 54 18 29 1011.1 1007.0 0.8
01/05:30am 10.3 4.0 5.9 74 2.2 WNW 28 44 15 24 1010.7 1006.5 0.4
01/05:00am 10.1 4.9 5.3 72 2.4 WNW 22 37 12 20 1009.8 1005.6 0.2
01/04:30am 11.9 4.8 3.7 57 4.0 WNW 30 39 16 21 1010.0 1005.8 0.0
01/04:00am 13.6 3.7 1.6 44 5.6 NW 43 65 23 35 1009.9 1005.7 0.0
01/03:31am 14.8 2.5 -0.5 35 6.9 NW 54 72 29 39 1009.3 1005.1 0.0
01/03:30am 14.8 2.1 -0.5 35 6.9 NW 56 72 30 39 1009.3 1005.1 0.0
01/03:00am 15.0 2.1 -0.3 35 7.0 NW 57 76 31 41 1009.4 1005.2 0.0
01/02:37am 15.4 2.7 -0.4 34 7.2 NNW 56 74 30 40 1009.6 1005.5 0.0
01/02:30am 15.4 3.1 -0.4 34 7.2 NW 54 70 29 38 1009.8 1005.6 0.0
01/02:00am 15.5 5.4 0.1 35 7.1 NW 43 61 23 33 1010.3 1006.2 0.0
01/01:32am 15.0 4.3 0.4 37 6.8 NNW 46 69 25 37 1010.7 1006.5 0.0
01/01:30am 14.9 4.8 1.4 40 6.4 NNW 44 56 24 30 1010.7 1006.5 0.0
01/01:00am 14.5 5.4 2.1 43 5.9 NNW 39 52 21 28 1011.2 1007.1 0.0
01/12:30am 13.9 5.2 2.2 45 5.6 NNW 37 48 20 26 1011.4 1007.2 0.0
01/12:00am 14.7 6.0 2.3 43 5.9 NNW 37 50 20 27 1011.9 1007.8 0.0
 
Date/Time
EDT
Temp
°C
App
Temp
°C
Dew
Point
Rel
Hum
%
Delta-T
°C
Wind Press
QNH
hPa
Press
MSL
hPa
Rain
since 9 am
mm
Dir
 
Spd
km/h
Gust
km/h
Spd
kts
Gust
kts
28/11:30pm 14.6 6.0 2.5 44 5.8 NW 37 44 20 24 1012.2 1008.0 0.0
28/11:00pm 14.6 5.7 2.8 45 5.7 NNW 39 48 21 26 1012.6 1008.5 0.0
28/10:30pm 14.4 6.9 3.2 47 5.5 NNW 32 41 17 22 1012.7 1008.6 0.0
28/10:00pm 14.1 8.6 3.8 50 5.1 NNW 22 30 12 16 1013.2 1009.1 0.0
28/09:30pm 13.7 9.2 4.3 53 4.7 NW 17 26 9 14 1013.4 1009.3 0.0
28/09:00pm 13.6 8.8 4.5 54 4.5 NW 19 24 10 13 1013.2 1009.1 0.0
28/08:30pm 13.7 8.7 4.8 55 4.5 NW 20 28 11 15 1013.1 1009.0 0.0
28/08:00pm 13.9 9.3 5.8 58 4.2 NW 19 26 10 14 1012.8 1008.7 0.0
28/07:30pm 13.7 11.4 7.5 66 3.3 WNW 9 15 5 8 1012.6 1008.5 0.0
28/07:00pm 15.3 10.7 6.6 56 4.6 NW 20 30 11 16 1012.5 1008.4 0.0
28/06:30pm 15.5 10.2 7.0 57 4.5 NW 24 35 13 19 1012.3 1008.2 0.0
28/06:00pm 16.0 11.0 8.2 60 4.2 NW 24 39 13 21 1012.4 1008.3 0.0
28/05:30pm 15.8 8.6 7.8 59 4.3 NNW 35 54 19 29 1012.3 1008.2 0.0
28/05:28pm 15.8 9.0 7.6 58 4.4 NNW 33 54 18 29 1012.4 1008.3 0.0
28/05:00pm 16.5 10.1 8.7 60 4.3 NW 32 46 17 25 1012.3 1008.2 0.0
28/04:44pm 16.3 9.6 8.3 59 4.4 NW 33 52 18 28 1012.4 1008.3 0.0
28/04:30pm 16.3 9.3 8.3 59 4.4 NW 35 50 19 27 1012.5 1008.4 0.0
28/04:05pm 15.3 9.2 8.3 63 3.8 NW 30 48 16 26 1012.7 1008.6 0.0
28/04:00pm 16.1 9.5 8.6 61 4.1 NNW 33 48 18 26 1012.7 1008.6 0.0
28/03:32pm 15.2 8.2 7.0 58 4.3 NW 33 52 18 28 1013.0 1008.9 0.0
28/03:30pm 15.1 7.7 6.9 58 4.3 NW 35 52 19 28 1013.1 1009.0 0.0
28/03:11pm 14.9 6.8 7.2 60 4.1 NNW 39 57 21 31 1013.2 1009.1 0.0
28/03:00pm 15.3 6.8 7.1 58 4.4 NNW 41 57 22 31 1013.3 1009.2 0.0
28/02:52pm 15.3 7.6 7.1 58 4.3 NNW 37 56 20 30 1013.2 1009.1 0.0
28/02:30pm 14.7 7.0 5.2 53 4.8 NNW 35 52 19 28 1013.5 1009.4 0.0
28/02:05pm 15.0 6.9 6.8 58 4.3 NNW 39 57 21 31 1013.5 1009.4 0.0
28/02:00pm 15.1 6.7 7.4 60 4.1 NNW 41 56 22 30 1013.8 1009.7 0.0
28/01:30pm 14.7 5.7 6.5 58 4.3 NW 43 56 23 30 1013.9 1009.8 0.0
28/01:00pm 15.1 5.7 7.2 59 4.2 NNW 46 57 25 31 1014.1 1010.0 0.0
28/12:30pm 14.0 5.0 6.4 60 3.9 NNW 43 52 23 28 1014.2 1010.1 0.0
28/12:00pm 13.9 5.3 6.3 60 3.9 NNW 41 50 22 27 1014.3 1010.3 0.0
28/11:30am 14.4 6.3 7.0 61 3.9 NNW 39 50 21 27 1014.7 1010.6 0.0
28/11:00am 14.3 5.5 5.7 56 4.4 NNW 41 50 22 27 1014.8 1010.7 0.0
28/10:30am 13.4 4.9 1.1 43 5.7 NW 35 46 19 25 1014.7 1010.6 0.0
28/10:21am 13.5 6.4 1.5 44 5.6 NW 28 39 15 21 1014.7 1010.6 0.0
28/10:00am 16.3 14.0 7.5 56 4.7 WNW 9 19 5 10 1014.4 1010.4 0.0
28/09:30am 14.9 12.0 6.7 58 4.3 NW 11 13 6 7 1014.2 1010.1 0.0
28/09:00am 14.7 12.4 7.5 62 3.8 W 9 13 5 7 1014.2 1010.1 0.0
28/08:30am 13.8 11.2 6.2 60 3.9 W 9 13 5 7 1014.3 1010.3 0.0
28/08:00am 12.2 5.4 -1.7 38 6.0 NW 24 33 13 18 1014.3 1010.3 0.0
28/07:30am 11.8 4.6 -5.2 30 6.7 NW 24 32 13 17 1014.3 1010.3 0.0
28/07:00am 12.4 3.6 -6.0 27 7.2 NW 32 37 17 20 1013.9 1009.8 0.0
28/06:30am 12.1 2.6 -4.1 32 6.6 NW 37 44 20 24 1013.6 1009.6 0.0
28/06:00am 11.9 2.1 -2.7 36 6.1 NW 39 48 21 26 1013.5 1009.4 0.0
28/05:30am 12.1 2.6 -0.4 42 5.5 NW 39 46 21 25 1013.3 1009.2 0.0
28/05:00am 12.1 2.8 -1.8 38 6.0 NW 37 44 20 24 1013.2 1009.1 0.0
28/04:30am 12.1 2.9 -1.4 39 5.8 NW 37 44 20 24 1013.3 1009.2 0.0
28/04:00am 11.9 2.5 -0.3 43 5.4 NW 39 46 21 25 1013.4 1009.3 0.0
28/03:30am 12.0 3.5 0.8 46 5.1 NW 35 44 19 24 1013.9 1009.8 0.0
28/03:00am 11.9 3.9 1.8 50 4.7 NW 33 43 18 23 1014.0 1009.9 0.0
28/02:30am 11.3 3.9 4.1 61 3.5 NW 32 37 17 20 1014.2 1010.1 0.0
28/02:00am 11.4 5.7 6.5 72 2.5 NW 26 33 14 18 1014.4 1010.4 0.0
28/01:30am 11.2 5.0 6.1 71 2.6 NW 28 37 15 20 1014.7 1010.6 0.0
28/01:00am 10.9 4.8 6.8 76 2.1 NW 28 35 15 19 1014.8 1010.7 0.0
28/12:30am 10.4 4.3 6.5 77 2.0 NW 28 35 15 19 1014.9 1010.9 0.0
28/12:00am 11.1 5.3 6.3 72 2.4 NNW 26 33 14 18 1015.0 1011.0 0.0
 
Date/Time
EDT
Temp
°C
App
Temp
°C
Dew
Point
Rel
Hum
%
Delta-T
°C
Wind Press
QNH
hPa
Press
MSL
hPa
Rain
since 9 am
mm
Dir
 
Spd
km/h
Gust
km/h
Spd
kts
Gust
kts
27/11:30pm 9.1 3.3 6.4 83 1.4 NNW 26 32 14 17 1015.0 1011.0 0.0
27/11:00pm 8.2 4.4 6.0 86 1.1 NNW 15 20 8 11 1015.2 1011.2 0.0
27/10:30pm 8.7 6.0 5.6 81 1.5 NNW 9 13 5 7 1015.4 1011.3 0.0
27/10:00pm 8.5 3.8 6.1 85 1.2 N 20 24 11 13 1015.1 1011.1 0.0
27/09:30pm 10.0 6.5 7.1 82 1.5 N 15 17 8 9 1015.0 1011.0 0.0
27/09:00pm 8.3 5.4 6.4 88 0.9 NW 11 15 6 8 1015.4 1011.3 0.0
27/08:30pm 8.5 5.5 6.1 85 1.2 NW 11 13 6 7 1015.0 1011.0 0.0
27/08:00pm 8.5 5.1 6.0 84 1.2 NW 13 15 7 8 1014.6 1010.5 0.0
27/07:30pm 10.4 7.9 6.4 76 2.0 NW 9 13 5 7 1013.9 1009.8 0.0
27/07:00pm 12.6 9.7 6.6 67 3.1 WNW 11 17 6 9 1013.6 1009.6 0.0
27/06:30pm 13.4 9.3 6.3 62 3.7 NW 17 22 9 12 1013.5 1009.4 0.0
27/06:00pm 14.0 11.0 7.5 65 3.4 WNW 13 20 7 11 1013.5 1009.4 0.0
27/05:30pm 13.5 9.1 7.5 67 3.2 NNW 20 30 11 16 1013.4 1009.3 0.0
27/05:00pm 13.7 9.1 8.3 70 2.9 NNW 22 33 12 18 1013.3 1009.2 0.0
27/04:30pm 14.0 8.9 7.5 65 3.4 NW 24 39 13 21 1013.1 1009.0 0.0
27/04:00pm 14.1 8.3 8.1 67 3.2 NW 28 37 15 20 1013.2 1009.1 0.0
27/03:30pm 14.7 9.2 6.0 56 4.5 NW 24 37 13 20 1013.1 1009.0 0.0
27/03:00pm 14.3 9.0 8.3 67 3.2 NW 26 39 14 21 1013.4 1009.3 0.0
27/02:30pm 13.7 7.0 7.2 65 3.4 NW 32 41 17 22 1013.6 1009.6 0.0
27/02:00pm 14.4 8.0 8.4 67 3.2 WNW 32 46 17 25 1013.8 1009.7 0.0
27/01:30pm 13.4 6.6 7.8 69 3.0 NW 33 48 18 26 1013.5 1009.4 0.0
27/01:00pm 13.2 7.1 8.1 71 2.7 NW 30 48 16 26 1014.1 1010.0 0.0
27/12:57pm 12.7 6.4 7.4 70 2.8 NW 30 48 16 26 1014.1 1010.0 0.0
27/12:30pm 12.6 5.5 7.9 73 2.5 NW 35 48 19 26 1014.3 1010.3 0.0
27/12:00pm 12.0 3.3 7.7 75 2.3 NW 43 57 23 31 1014.7 1010.6 0.0
27/11:30am 12.2 3.1 5.8 65 3.2 NW 43 57 23 31 1014.4 1010.4 0.0
27/11:12am 11.8 4.0 6.5 70 2.7 NW 37 56 20 30 1014.2 1010.1 0.0
27/11:00am 11.5 2.9 6.4 71 2.6 NW 41 57 22 31 1014.2 1010.1 0.0
27/10:59am 11.4 2.7 5.9 69 2.8 NW 41 59 22 32 1014.2 1010.1 0.0
27/10:30am 11.1 0.7 6.0 71 2.6 NW 50 61 27 33 1013.9 1009.8 0.0
27/10:00am 10.7 -0.2 5.5 70 2.6 NW 52 63 28 34 1013.5 1009.4 0.0
27/09:30am 10.7 -0.7 6.6 76 2.1 NW 56 65 30 35 1013.4 1009.3 0.0
27/09:00am 10.3 0.4 6.5 77 1.9 NW 48 59 26 32 1013.3 1009.2 0.0
27/08:30am 9.7 0.3 7.1 84 1.3 NW 46 54 25 29 1013.1 1009.0 0.0
27/08:00am 9.0 -0.2 7.9 93 0.6 NW 46 56 25 30 1013.1 1009.0 0.0
27/07:30am 8.9 0.7 8.0 94 0.5 NW 41 54 22 29 1013.1 1009.0 0.0
27/07:00am 8.6 1.8 7.8 95 0.4 NW 33 44 18 24 1013.2 1009.1 0.0
27/06:30am 9.1 2.6 8.3 95 0.4 NNW 32 43 17 23 1013.1 1009.0 0.0
27/06:00am 9.4 3.5 8.9 97 0.3 NNW 30 43 16 23 1013.2 1009.1 0.0
27/05:30am 9.4 4.2 8.8 96 0.3 NNW 26 37 14 20 1013.2 1009.1 0.0
27/05:00am 9.5 4.7 8.9 96 0.3 NNW 24 33 13 18 1013.3 1009.2 0.0
27/04:30am 9.4 5.5 9.3 99 0.1 NNW 20 32 11 17 1013.4 1009.3 0.0
27/04:00am 9.7 5.0 9.1 96 0.3 NNW 24 33 13 18 1013.4 1009.3 0.0
27/03:30am 10.1 5.1 9.5 96 0.3 NNW 26 33 14 18 1013.5 1009.4 0.0
27/03:00am 10.1 5.5 9.5 96 0.3 NNW 24 35 13 19 1013.6 1009.6 0.0
27/02:30am 10.2 6.9 9.4 95 0.4 NNW 17 26 9 14 1013.8 1009.7 0.0
27/02:00am 9.4 7.6 9.3 99 0.1 NNE 9 15 5 8 1014.0 1009.9 0.0
27/01:30am 9.4 6.8 9.3 99 0.1 NNE 13 17 7 9 1014.3 1010.3 0.0
27/01:00am 9.3 6.7 9.2 99 0.1 NE 13 17 7 9 1014.7 1010.6 0.0
27/12:30am 9.5 7.3 9.4 99 0.1 NNE 11 15 6 8 1014.9 1010.9 0.0
27/12:00am 9.5 7.7 9.4 99 0.1 NE 9 13 5 7 1014.9 1010.9 0.0
 
Date/Time
EDT
Temp
°C
App
Temp
°C
Dew
Point
Rel
Hum
%
Delta-T
°C
Wind Press
QNH
hPa
Press
MSL
hPa
Rain
since 9 am
mm
Dir
 
Spd
km/h
Gust
km/h
Spd
kts
Gust
kts
26/11:30pm 9.3 7.1 9.2 99 0.1 NE 11 15 6 8 1015.0 1011.0 0.0

Other Formats:

Comma delimited format used in spreadsheet applications
http://www.bom.gov.au/fwo/IDN60801/IDN60801.95909.axf

JavaScript Object Notation format (JSON) in row-major order
http://www.bom.gov.au/fwo/IDN60801/IDN60801.95909.json